createdAt,value
2017-11-07T00:02:26.152Z,4.50
2017-11-07T00:04:53.740Z,4.40
2017-11-07T00:07:21.319Z,4.40
2017-11-07T00:09:48.744Z,4.40
2017-11-07T00:12:16.155Z,4.40
2017-11-07T00:14:43.592Z,4.40
2017-11-07T00:17:11.014Z,4.40
2017-11-07T00:19:38.504Z,4.40
2017-11-07T00:22:06.059Z,4.40
2017-11-07T00:24:33.884Z,4.40
2017-11-07T00:27:01.302Z,4.40
2017-11-07T00:29:29.036Z,4.40
2017-11-07T00:31:56.864Z,4.50
2017-11-07T00:34:24.461Z,4.40
2017-11-07T00:36:52.016Z,4.40
2017-11-07T00:39:19.473Z,4.40
2017-11-07T00:41:47.009Z,4.40
2017-11-07T00:44:14.692Z,4.40
2017-11-07T00:46:42.147Z,4.40
2017-11-07T00:49:09.610Z,4.40
2017-11-07T00:51:37.064Z,4.40
2017-11-07T00:54:04.485Z,4.30
2017-11-07T00:56:31.977Z,4.30
2017-11-07T00:58:59.392Z,4.30
2017-11-07T01:01:26.824Z,4.20
2017-11-07T01:03:54.249Z,4.20
2017-11-07T01:06:21.708Z,4.20
2017-11-07T01:08:49.165Z,4.20
2017-11-07T01:11:16.717Z,4.20
2017-11-07T01:13:44.172Z,4.20
2017-11-07T01:16:11.584Z,4.20
2017-11-07T01:18:39.088Z,4.20
2017-11-07T01:21:06.504Z,4.20
2017-11-07T01:23:33.932Z,4.20
2017-11-07T01:26:01.450Z,4.20
2017-11-07T01:28:28.908Z,4.10
2017-11-07T01:30:56.332Z,4.20
2017-11-07T01:33:23.824Z,4.20
2017-11-07T01:35:51.280Z,4.10
2017-11-07T01:38:18.729Z,4.10
2017-11-07T01:40:46.148Z,4.20
2017-11-07T01:43:13.570Z,4.20
2017-11-07T01:45:41.111Z,4.10
2017-11-07T01:48:08.568Z,4.10
2017-11-07T01:50:36.012Z,4.10
2017-11-07T01:53:03.433Z,4.10
2017-11-07T01:55:30.925Z,4.10
2017-11-07T01:57:58.340Z,4.10
2017-11-07T02:00:25.837Z,4.10
2017-11-07T02:02:53.251Z,4.10
2017-11-07T02:05:20.749Z,4.10
2017-11-07T02:07:48.165Z,4.10
2017-11-07T02:10:15.596Z,4.00
2017-11-07T02:12:43.021Z,4.00
2017-11-07T02:15:10.520Z,4.10
2017-11-07T02:17:37.941Z,4.10
2017-11-07T02:20:05.433Z,4.10
2017-11-07T02:22:32.852Z,4.10
2017-11-07T02:25:00.401Z,4.10
2017-11-07T02:27:27.820Z,4.10
2017-11-07T02:29:56.245Z,4.10
2017-11-07T02:32:23.693Z,4.00
2017-11-07T02:34:51.120Z,4.10
2017-11-07T02:37:18.604Z,4.00
2017-11-07T02:39:46.042Z,4.10
2017-11-07T02:42:13.516Z,4.10
2017-11-07T02:44:40.980Z,4.20
2017-11-07T02:47:08.415Z,4.20
2017-11-07T02:49:35.888Z,4.20
2017-11-07T02:52:03.321Z,4.20
2017-11-07T02:54:30.736Z,4.20
2017-11-07T02:56:58.253Z,4.20
2017-11-07T02:59:25.683Z,4.20
2017-11-07T03:01:53.181Z,4.20
2017-11-07T03:04:20.595Z,4.20
2017-11-07T03:06:48.028Z,4.20
2017-11-07T03:09:15.508Z,4.30
2017-11-07T03:11:42.943Z,4.30
2017-11-07T03:14:10.445Z,4.30
2017-11-07T03:16:37.877Z,4.30
2017-11-07T03:19:05.294Z,4.30
2017-11-07T03:21:32.736Z,4.30
2017-11-07T03:24:00.155Z,4.30
2017-11-07T03:26:27.731Z,4.30
2017-11-07T03:28:55.149Z,4.30
2017-11-07T03:31:22.569Z,4.30
2017-11-07T03:33:50.104Z,4.40
2017-11-07T03:36:17.521Z,4.40
2017-11-07T03:38:45.016Z,4.40
2017-11-07T03:41:12.432Z,4.40
2017-11-07T03:43:39.860Z,4.50
2017-11-07T03:46:07.388Z,4.50
2017-11-07T03:48:35.152Z,4.50
2017-11-07T03:51:02.605Z,4.50
2017-11-07T03:53:30.244Z,4.50
2017-11-07T03:55:57.821Z,4.50
2017-11-07T03:58:25.250Z,4.60
2017-11-07T04:00:52.668Z,4.60
2017-11-07T04:03:20.193Z,4.60
2017-11-07T04:05:47.628Z,4.60
2017-11-07T04:08:15.104Z,4.70
2017-11-07T04:10:42.736Z,4.70
2017-11-07T04:13:10.318Z,4.70
2017-11-07T04:15:37.775Z,4.70
2017-11-07T04:18:05.239Z,4.80
2017-11-07T04:20:32.697Z,4.80
2017-11-07T04:23:00.146Z,4.80
2017-11-07T04:25:27.578Z,4.80
2017-11-07T04:27:55.005Z,4.80
2017-11-07T04:30:23.208Z,4.90
2017-11-07T04:32:50.892Z,4.90
2017-11-07T04:35:18.329Z,4.90
2017-11-07T04:37:45.751Z,4.90
2017-11-07T04:40:13.264Z,4.90
2017-11-07T04:42:40.692Z,5.00
2017-11-07T04:45:08.172Z,5.00
2017-11-07T04:47:35.592Z,5.00
2017-11-07T04:50:03.036Z,5.10
2017-11-07T04:52:31.268Z,5.10
2017-11-07T04:54:58.919Z,5.10
2017-11-07T04:57:26.340Z,5.10
2017-11-07T04:59:53.767Z,5.10
2017-11-07T05:02:21.205Z,5.10
2017-11-07T05:04:48.746Z,5.10
2017-11-07T05:07:16.172Z,5.10
2017-11-07T05:09:43.656Z,5.10
2017-11-07T05:12:11.113Z,5.10
2017-11-07T05:14:38.567Z,5.20
2017-11-07T05:17:05.996Z,5.20
2017-11-07T05:19:33.416Z,5.20
2017-11-07T05:22:00.849Z,5.20
2017-11-07T05:24:28.393Z,5.20
2017-11-07T05:26:55.854Z,5.20
2017-11-07T05:29:23.316Z,5.20
2017-11-07T05:31:50.752Z,5.20
2017-11-07T05:34:18.220Z,5.20
2017-11-07T05:36:45.987Z,5.30
2017-11-07T05:39:13.621Z,5.30
2017-11-07T05:41:41.076Z,5.30
2017-11-07T05:44:08.670Z,5.30
2017-11-07T05:46:36.108Z,5.30
2017-11-07T05:49:03.548Z,5.30
2017-11-07T05:51:31.022Z,5.30
2017-11-07T05:53:58.456Z,5.30
2017-11-07T05:56:25.884Z,5.30
2017-11-07T05:58:53.393Z,5.30
2017-11-07T06:01:20.812Z,5.30
2017-11-07T06:03:48.248Z,5.30
2017-11-07T06:06:16.689Z,5.30
2017-11-07T06:08:44.123Z,5.30
2017-11-07T06:11:11.553Z,5.30
2017-11-07T06:13:39.564Z,5.40
2017-11-07T06:16:07.120Z,5.40
2017-11-07T06:18:34.556Z,5.40
2017-11-07T06:21:02.060Z,5.40
2017-11-07T06:23:29.680Z,5.40
2017-11-07T06:25:57.127Z,5.40
2017-11-07T06:28:24.709Z,5.40
2017-11-07T06:30:52.129Z,5.40
2017-11-07T06:33:19.604Z,5.40
2017-11-07T06:35:47.025Z,5.40
2017-11-07T06:38:14.453Z,5.40
2017-11-07T06:40:41.891Z,5.50
2017-11-07T06:43:09.459Z,5.40
2017-11-07T06:45:37.220Z,5.50
2017-11-07T06:48:04.980Z,5.50
2017-11-07T06:50:32.440Z,5.50
2017-11-07T06:53:00.067Z,5.50
2017-11-07T06:55:27.657Z,5.50
2017-11-07T06:57:55.113Z,5.50
2017-11-07T07:00:22.552Z,5.50
2017-11-07T07:02:49.973Z,5.50
2017-11-07T07:05:17.480Z,5.50
2017-11-07T07:07:44.940Z,5.60
2017-11-07T07:10:12.700Z,5.60
2017-11-07T07:12:40.128Z,5.60
2017-11-07T07:15:07.612Z,5.60
2017-11-07T07:17:35.072Z,5.70
2017-11-07T07:20:02.504Z,5.70
2017-11-07T07:22:29.978Z,5.70
2017-11-07T07:24:57.448Z,5.70
2017-11-07T07:27:25.204Z,5.80
2017-11-07T07:29:52.657Z,5.80
2017-11-07T07:32:20.100Z,5.80
2017-11-07T07:34:47.574Z,5.80
2017-11-07T07:37:15.030Z,5.80
2017-11-07T07:39:42.484Z,5.80
2017-11-07T07:42:10.144Z,5.90
2017-11-07T07:44:37.704Z,5.90
2017-11-07T07:47:05.159Z,5.90
2017-11-07T07:49:32.836Z,6.00
2017-11-07T07:52:00.260Z,6.00
2017-11-07T07:54:27.835Z,6.00
2017-11-07T07:56:55.256Z,6.00
2017-11-07T07:59:22.747Z,6.00
2017-11-07T08:01:50.176Z,6.00
2017-11-07T08:04:17.664Z,6.10
2017-11-07T08:06:45.121Z,6.10
2017-11-07T08:09:12.564Z,6.20
2017-11-07T08:11:40.033Z,6.20
2017-11-07T08:14:07.478Z,6.20
2017-11-07T08:16:34.904Z,6.20
2017-11-07T08:19:02.396Z,6.30
2017-11-07T08:21:29.824Z,6.30
2017-11-07T08:23:57.675Z,6.30
2017-11-07T08:26:25.377Z,6.30
2017-11-07T08:28:52.836Z,6.30
2017-11-07T08:31:20.264Z,6.40
2017-11-07T08:33:47.749Z,6.40
2017-11-07T08:36:15.181Z,6.50
2017-11-07T08:38:42.614Z,6.50
2017-11-07T08:41:10.044Z,6.60
2017-11-07T08:43:37.472Z,6.70
2017-11-07T08:46:04.917Z,6.70
2017-11-07T08:48:32.396Z,6.80
2017-11-07T08:50:59.864Z,6.90
2017-11-07T08:53:27.300Z,6.90
2017-11-07T08:55:54.740Z,6.90
2017-11-07T08:58:22.309Z,7.00
2017-11-07T09:00:49.765Z,7.00
2017-11-07T09:03:17.229Z,7.10
2017-11-07T09:05:44.678Z,7.10
2017-11-07T09:08:12.136Z,7.10
2017-11-07T09:10:39.569Z,7.20
2017-11-07T09:13:07.000Z,7.20
2017-11-07T09:15:34.501Z,7.20
2017-11-07T09:18:01.944Z,7.30
2017-11-07T09:20:29.375Z,7.30
2017-11-07T09:22:56.815Z,7.40
2017-11-07T09:25:24.241Z,7.40
2017-11-07T09:27:51.788Z,7.40
2017-11-07T09:30:19.244Z,7.50
2017-11-07T09:32:46.700Z,7.50
2017-11-07T09:35:14.120Z,7.60
2017-11-07T09:37:41.566Z,7.60
2017-11-07T09:40:08.989Z,7.70
2017-11-07T09:42:36.525Z,7.80
2017-11-07T09:45:03.981Z,7.80
2017-11-07T09:47:31.444Z,7.90
2017-11-07T09:49:58.873Z,7.90
2017-11-07T09:52:26.353Z,8.00
2017-11-07T09:54:53.781Z,8.10
2017-11-07T09:57:21.206Z,8.10
2017-11-07T09:59:48.720Z,8.20
2017-11-07T10:02:16.177Z,8.30
2017-11-07T10:04:43.608Z,8.50
2017-11-07T10:07:11.031Z,8.60
2017-11-07T10:09:38.545Z,8.60
2017-11-07T10:12:05.997Z,8.60
2017-11-07T10:14:33.429Z,8.70
2017-11-07T10:17:00.853Z,8.90
2017-11-07T10:19:28.291Z,9.00
2017-11-07T10:21:55.823Z,9.10
2017-11-07T10:24:23.282Z,9.20
2017-11-07T10:26:50.740Z,9.20
2017-11-07T10:29:18.165Z,9.20
2017-11-07T10:31:45.740Z,9.20
2017-11-07T10:34:13.416Z,9.30
2017-11-07T10:36:40.849Z,9.40
2017-11-07T10:39:08.329Z,9.50
2017-11-07T10:41:35.792Z,9.60
2017-11-07T10:44:03.241Z,9.60
2017-11-07T10:46:30.701Z,9.70
2017-11-07T10:48:58.461Z,9.70
2017-11-07T10:51:25.924Z,9.60
2017-11-07T10:53:53.376Z,9.50
2017-11-07T10:56:20.812Z,9.50
2017-11-07T10:58:48.232Z,9.50
2017-11-07T11:01:15.660Z,9.50
2017-11-07T11:03:43.113Z,9.60
2017-11-07T11:06:10.553Z,9.60
2017-11-07T11:08:38.946Z,9.60
2017-11-07T11:11:06.391Z,9.60
2017-11-07T11:13:33.856Z,9.70
2017-11-07T11:16:01.268Z,9.80
2017-11-07T11:18:29.655Z,9.80
2017-11-07T11:20:57.084Z,9.80
2017-11-07T11:23:25.301Z,9.90
2017-11-07T11:25:52.720Z,9.90
2017-11-07T11:28:20.158Z,10.00
2017-11-07T11:30:47.670Z,10.10
2017-11-07T11:33:15.105Z,10.40
2017-11-07T11:35:42.525Z,10.70
2017-11-07T11:38:09.978Z,11.00
2017-11-07T11:40:37.405Z,11.40
2017-11-07T11:43:04.833Z,11.40
2017-11-07T11:45:32.357Z,11.40
2017-11-07T11:47:59.786Z,11.30
2017-11-07T11:50:27.223Z,11.20
2017-11-07T11:52:54.780Z,11.20
2017-11-07T11:55:22.428Z,11.10
2017-11-07T11:57:49.855Z,11.00
2017-11-07T12:00:18.081Z,11.10
2017-11-07T12:02:45.521Z,11.00
2017-11-07T12:05:13.029Z,11.10
2017-11-07T12:07:40.454Z,11.10
2017-11-07T12:10:07.888Z,11.10
2017-11-07T12:12:35.349Z,11.10
2017-11-07T12:15:02.779Z,11.00
2017-11-07T12:17:30.220Z,10.90
2017-11-07T12:19:57.650Z,10.80
2017-11-07T12:22:25.096Z,10.80
2017-11-07T12:24:52.528Z,10.80
2017-11-07T12:27:20.000Z,10.70
2017-11-07T12:29:47.435Z,10.70
2017-11-07T12:32:14.915Z,10.60
2017-11-07T12:34:42.364Z,10.60
2017-11-07T12:37:09.860Z,10.50
2017-11-07T12:39:37.984Z,10.60
2017-11-07T12:42:05.423Z,10.60
2017-11-07T12:44:32.905Z,10.60
2017-11-07T12:47:00.332Z,10.70
2017-11-07T12:49:27.788Z,10.60
2017-11-07T12:51:59.757Z,10.60
2017-11-07T12:54:27.332Z,10.60
2017-11-07T12:56:54.965Z,10.60
2017-11-07T12:59:23.477Z,10.70
2017-11-07T13:01:50.935Z,10.70
2017-11-07T13:04:18.392Z,10.80
2017-11-07T13:06:45.817Z,10.80
2017-11-07T13:09:13.294Z,10.70
2017-11-07T13:11:40.750Z,10.70
2017-11-07T13:14:08.208Z,10.70
2017-11-07T13:16:35.637Z,10.70
2017-11-07T13:19:04.044Z,10.60
2017-11-07T13:21:31.702Z,10.60
2017-11-07T13:23:59.149Z,10.50
2017-11-07T13:26:26.716Z,10.40
2017-11-07T13:28:54.908Z,10.40
2017-11-07T13:31:22.424Z,10.40
2017-11-07T13:33:49.941Z,10.40
2017-11-07T13:36:17.468Z,10.40
2017-11-07T13:38:44.900Z,10.40
2017-11-07T13:41:12.340Z,10.40
2017-11-07T13:43:39.770Z,10.30
2017-11-07T13:46:07.292Z,10.40
2017-11-07T13:48:35.057Z,10.40
2017-11-07T13:51:02.509Z,10.30
2017-11-07T13:53:29.972Z,10.40
2017-11-07T13:55:57.736Z,10.40
2017-11-07T13:58:25.491Z,10.30
2017-11-07T14:00:52.928Z,10.30
2017-11-07T14:03:20.357Z,10.30
2017-11-07T14:05:47.800Z,10.30
2017-11-07T14:08:15.245Z,10.30
2017-11-07T14:10:42.691Z,10.20
2017-11-07T14:13:10.232Z,10.20
2017-11-07T14:15:37.692Z,10.20
2017-11-07T14:18:05.119Z,10.20
2017-11-07T14:20:32.544Z,10.20
2017-11-07T14:23:00.057Z,10.20
2017-11-07T14:25:27.512Z,10.10
2017-11-07T14:27:54.968Z,10.20
2017-11-07T14:30:22.812Z,10.10
2017-11-07T14:32:50.496Z,10.10
2017-11-07T14:35:17.916Z,10.10
2017-11-07T14:37:45.356Z,10.10
2017-11-07T14:40:12.864Z,10.10
2017-11-07T14:42:40.324Z,10.10
2017-11-07T14:45:07.744Z,10.10
2017-11-07T14:47:35.180Z,10.10
2017-11-07T14:50:02.614Z,10.10
2017-11-07T14:52:30.120Z,10.10
2017-11-07T14:54:57.604Z,10.00
2017-11-07T14:57:25.052Z,10.00
2017-11-07T14:59:52.520Z,10.00
2017-11-07T15:02:19.947Z,10.00
2017-11-07T15:04:47.384Z,10.00
2017-11-07T15:07:14.812Z,10.00
2017-11-07T15:09:42.347Z,10.00
2017-11-07T15:12:10.040Z,10.00
2017-11-07T15:14:37.455Z,9.90
2017-11-07T15:17:04.964Z,9.90
2017-11-07T15:19:32.396Z,9.80
2017-11-07T15:21:59.932Z,9.90
2017-11-07T15:24:27.361Z,9.90
2017-11-07T15:26:54.844Z,9.80
2017-11-07T15:29:22.492Z,9.80
2017-11-07T15:31:50.061Z,9.80
2017-11-07T15:34:17.496Z,9.80
2017-11-07T15:36:44.921Z,9.70
2017-11-07T15:39:13.259Z,9.70
2017-11-07T15:41:40.739Z,9.70
2017-11-07T15:44:08.216Z,9.70
2017-11-07T15:46:35.727Z,9.60
2017-11-07T15:49:03.144Z,9.60
2017-11-07T15:51:30.576Z,9.60
2017-11-07T15:53:58.300Z,9.60
2017-11-07T15:56:25.853Z,9.60
2017-11-07T15:58:53.308Z,9.60
2017-11-07T16:01:20.716Z,9.50
2017-11-07T16:03:48.145Z,9.50
2017-11-07T16:06:15.596Z,9.50
2017-11-07T16:08:43.044Z,9.50
2017-11-07T16:11:10.592Z,9.50
2017-11-07T16:13:38.022Z,9.50
2017-11-07T16:16:05.518Z,9.50
2017-11-07T16:18:32.978Z,9.50
2017-11-07T16:21:00.604Z,9.40
2017-11-07T16:23:28.048Z,9.50
2017-11-07T16:25:55.644Z,9.40
2017-11-07T16:28:23.063Z,9.40
2017-11-07T16:30:50.547Z,9.40
2017-11-07T16:33:18.007Z,9.40
2017-11-07T16:35:45.436Z,9.40
2017-11-07T16:38:12.928Z,9.40
2017-11-07T16:40:40.344Z,9.40
2017-11-07T16:43:07.785Z,9.40
2017-11-07T16:45:35.216Z,9.40
2017-11-07T16:48:02.651Z,9.40
2017-11-07T16:50:30.096Z,9.40
2017-11-07T16:52:57.528Z,9.40
2017-11-07T16:55:25.116Z,9.30
2017-11-07T16:57:52.566Z,9.40
2017-11-07T17:00:20.021Z,9.40
2017-11-07T17:02:47.486Z,9.40
2017-11-07T17:05:15.130Z,9.30
2017-11-07T17:07:42.727Z,9.30
2017-11-07T17:10:10.170Z,9.30
2017-11-07T17:12:37.614Z,9.30
2017-11-07T17:15:05.044Z,9.30
2017-11-07T17:17:32.468Z,9.30
2017-11-07T17:19:59.900Z,9.30
2017-11-07T17:22:27.553Z,9.30
2017-11-07T17:24:54.977Z,9.30
2017-11-07T17:27:22.653Z,9.30
2017-11-07T17:29:50.081Z,9.30
2017-11-07T17:32:17.513Z,9.30
2017-11-07T17:34:44.965Z,9.30
2017-11-07T17:37:12.380Z,9.30
2017-11-07T17:39:39.806Z,9.30
2017-11-07T17:42:07.305Z,9.30
2017-11-07T17:44:34.728Z,9.20
2017-11-07T17:47:02.155Z,9.30
2017-11-07T17:49:31.153Z,9.30
2017-11-07T17:51:59.348Z,9.20
2017-11-07T17:54:26.772Z,9.20
2017-11-07T17:56:54.253Z,9.20
2017-11-07T17:59:21.672Z,9.30
2017-11-07T18:01:49.097Z,9.30
2017-11-07T18:04:16.560Z,9.30
2017-11-07T18:06:44.063Z,9.30
2017-11-07T18:09:12.268Z,9.20
2017-11-07T18:11:39.707Z,9.20
2017-11-07T18:14:07.892Z,9.20
2017-11-07T18:16:35.312Z,9.20
2017-11-07T18:19:03.514Z,9.20
2017-11-07T18:21:30.933Z,9.20
2017-11-07T18:23:58.370Z,9.20
2017-11-07T18:26:25.906Z,9.20
2017-11-07T18:28:53.336Z,9.20
2017-11-07T18:31:20.764Z,9.30
2017-11-07T18:33:48.208Z,9.20
2017-11-07T18:36:15.641Z,9.20
2017-11-07T18:38:43.072Z,9.20
2017-11-07T18:41:10.580Z,9.30
2017-11-07T18:43:38.032Z,9.30
2017-11-07T18:46:05.561Z,9.20
2017-11-07T18:48:32.989Z,9.20
2017-11-07T18:51:00.420Z,9.20
2017-11-07T18:53:28.612Z,9.20
2017-11-07T18:55:56.822Z,9.20
2017-11-07T18:58:24.288Z,9.20
2017-11-07T19:00:51.752Z,9.20
2017-11-07T19:03:19.224Z,9.20
2017-11-07T19:05:46.680Z,9.20
2017-11-07T19:08:14.108Z,9.20
2017-11-07T19:10:41.541Z,9.20
2017-11-07T19:13:08.973Z,9.20
2017-11-07T19:15:37.192Z,9.20
2017-11-07T19:18:04.618Z,9.20
2017-11-07T19:20:32.026Z,9.20
2017-11-07T19:22:59.466Z,9.20
2017-11-07T19:25:26.880Z,9.20
2017-11-07T19:27:54.321Z,9.20
2017-11-07T19:30:22.509Z,9.20
2017-11-07T19:32:49.991Z,9.20
2017-11-07T19:35:18.075Z,9.20
2017-11-07T19:37:46.280Z,9.10
2017-11-07T19:40:13.700Z,9.10
2017-11-07T19:42:41.176Z,9.10
2017-11-07T19:45:08.606Z,9.10
2017-11-07T19:47:38.289Z,9.10
2017-11-07T19:50:05.713Z,9.10
2017-11-07T19:52:33.190Z,9.10
2017-11-07T19:55:01.416Z,9.10
2017-11-07T19:57:28.849Z,9.10
2017-11-07T19:59:56.273Z,9.10
2017-11-07T20:02:24.072Z,9.10
2017-11-07T20:04:51.484Z,9.10
2017-11-07T20:07:18.912Z,9.10
2017-11-07T20:09:46.345Z,9.10
2017-11-07T20:12:13.772Z,9.10
2017-11-07T20:14:41.200Z,9.00
2017-11-07T20:17:09.401Z,9.10
2017-11-07T20:19:36.835Z,9.00
2017-11-07T20:22:04.260Z,9.00
2017-11-07T20:24:31.703Z,9.00
2017-11-07T20:26:59.123Z,9.00
2017-11-07T20:29:26.561Z,9.10
2017-11-07T20:31:54.746Z,9.00
2017-11-07T20:34:22.289Z,9.00
2017-11-07T20:36:49.708Z,9.00
2017-11-07T20:39:17.128Z,9.00
2017-11-07T20:41:44.556Z,9.00
2017-11-07T20:44:11.992Z,9.00
2017-11-07T20:46:39.416Z,9.00
2017-11-07T20:49:06.845Z,9.00
2017-11-07T20:51:34.284Z,9.00
2017-11-07T20:54:02.537Z,9.00
2017-11-07T20:56:29.972Z,9.00
2017-11-07T20:58:57.397Z,9.00
2017-11-07T21:01:24.872Z,9.00
2017-11-07T21:03:52.300Z,9.00
2017-11-07T21:06:19.732Z,9.00
2017-11-07T21:08:47.148Z,9.00
2017-11-07T21:11:14.588Z,9.00
2017-11-07T21:13:42.004Z,9.00
2017-11-07T21:16:10.204Z,8.90
2017-11-07T21:18:37.627Z,8.90
2017-11-07T21:21:05.825Z,8.90
2017-11-07T21:23:33.240Z,8.90
2017-11-07T21:26:00.683Z,8.90
2017-11-07T21:28:28.121Z,9.00
2017-11-07T21:30:55.544Z,9.00
2017-11-07T21:33:22.980Z,9.00
2017-11-07T21:35:50.424Z,8.90
2017-11-07T21:38:21.513Z,9.00
2017-11-07T21:40:48.935Z,8.90
2017-11-07T21:43:17.147Z,9.00
2017-11-07T21:45:44.582Z,9.00
2017-11-07T21:48:12.020Z,9.00
2017-11-07T21:50:39.442Z,9.00
2017-11-07T21:53:06.869Z,9.00
2017-11-07T21:55:34.316Z,9.00
2017-11-07T21:58:01.749Z,9.00
2017-11-07T22:00:32.735Z,9.00
2017-11-07T22:03:00.170Z,9.00
2017-11-07T22:05:27.596Z,9.00
2017-11-07T22:07:55.024Z,9.00
2017-11-07T22:10:22.460Z,9.00
2017-11-07T22:12:49.892Z,9.00
2017-11-07T22:15:17.312Z,9.00
2017-11-07T22:20:40.015Z,9.00
2017-11-07T22:23:26.985Z,9.00
2017-11-07T22:25:54.600Z,9.00
2017-11-07T22:28:22.040Z,9.00
2017-11-07T22:30:49.464Z,9.00
2017-11-07T22:33:16.892Z,9.00
2017-11-07T22:35:44.324Z,9.00
2017-11-07T22:38:11.800Z,9.00
2017-11-07T22:40:39.241Z,9.00
2017-11-07T22:43:06.668Z,9.00
2017-11-07T22:45:34.123Z,9.00
2017-11-07T22:48:01.704Z,9.00
2017-11-07T22:50:29.140Z,8.90
2017-11-07T22:52:56.560Z,9.00
2017-11-07T22:55:23.993Z,9.00
2017-11-07T22:57:51.424Z,8.90
2017-11-07T23:00:18.851Z,8.90
2017-11-07T23:02:46.340Z,8.90
2017-11-07T23:05:13.808Z,8.90
2017-11-07T23:07:41.256Z,8.90
2017-11-07T23:10:08.813Z,9.00
2017-11-07T23:12:36.268Z,8.90
2017-11-07T23:15:03.704Z,8.90
2017-11-07T23:17:31.129Z,8.90
2017-11-07T23:19:59.361Z,8.90
2017-11-07T23:22:27.010Z,8.90
2017-11-07T23:24:54.427Z,8.90
2017-11-07T23:27:21.860Z,8.90
2017-11-07T23:29:49.386Z,8.90
2017-11-07T23:32:16.822Z,8.90
2017-11-07T23:34:44.237Z,8.90
2017-11-07T23:37:11.752Z,8.80
2017-11-07T23:39:39.511Z,8.80
2017-11-07T23:42:06.955Z,8.80
2017-11-07T23:44:34.427Z,8.80
2017-11-07T23:47:01.884Z,8.80
2017-11-07T23:49:29.305Z,8.80
2017-11-07T23:51:56.740Z,8.80
2017-11-07T23:54:24.164Z,8.80
2017-11-07T23:56:51.592Z,8.70
2017-11-07T23:59:19.916Z,8.80
